Time;durP1;ratioP1;P1;durP2;ratioP2;P2;SDS_P1;SDS_P2;PMS_P1;PMS_P2;Temp;Humidity;BMP_temperature;BMP_pressure;BME280_temperature;BME280_humidity;BME280_pressure;Samples;Min_cycle;Max_cycle;Signal;HPM_P1;HPM_P2
2021/06/29 06:47:22;;;;;;;20.65;18.58;;;;;;;;;;10632523;28;20027;-87
2021/06/29 07:04:04;;;;;;;9.02;8.13;;;;;;;;;;10587237;27;20032;-85
2021/06/29 07:09:06;;;;;;;11.10;10.05;;;;;;;;;;10538401;28;20055;-83
2021/06/29 07:14:06;;;;;;;12.90;11.60;;;;;;;;;;10539479;28;20123;-83
2021/06/29 07:19:07;;;;;;;14.00;12.70;;;;;;;;;;10537208;28;20059;-82
2021/06/29 07:24:09;;;;;;;25.70;23.25;;;;;;;;;;10538294;28;20482;-83
2021/06/29 07:29:10;;;;;;;19.60;17.60;;;;;;;;;;10535643;28;20049;-82
2021/06/29 07:34:10;;;;;;;21.10;19.08;;;;;;;;;;10536404;28;20429;-83
2021/06/29 07:39:11;;;;;;;22.17;20.27;;;;;;;;;;10552858;28;20031;-82
2021/06/29 07:44:12;;;;;;;14.93;13.43;;;;;;;;;;10553300;28;20084;-84
2021/06/29 07:49:13;;;;;;;15.60;13.45;;;;;;;;;;10536183;28;20496;-82
2021/06/29 07:54:14;;;;;;;14.35;13.05;;;;;;;;;;10553217;28;20592;-83
2021/06/29 07:59:15;;;;;;;14.27;12.93;;;;;;;;;;10535681;28;20082;-81
2021/06/29 08:04:16;;;;;;;12.90;11.77;;;;;;;;;;10594025;27;20078;-81
2021/06/29 08:09:17;;;;;;;13.68;12.38;;;;;;;;;;10621387;27;20038;-81
2021/06/29 08:14:18;;;;;;;14.25;12.93;;;;;;;;;;10621365;27;20112;-81
2021/06/29 08:19:19;;;;;;;11.90;10.70;;;;;;;;;;10633791;27;20027;-80
2021/06/29 08:24:20;;;;;;;13.38;12.13;;;;;;;;;;10621564;27;20164;-79
2021/06/29 08:29:21;;;;;;;13.73;12.50;;;;;;;;;;10628795;27;20028;-82
2021/06/29 08:34:22;;;;;;;11.80;10.60;;;;;;;;;;10629923;27;20436;-80
2021/06/29 08:39:23;;;;;;;11.90;10.80;;;;;;;;;;10620820;27;20029;-80
2021/06/29 08:44:24;;;;;;;13.73;11.82;;;;;;;;;;10638311;27;20029;-80
2021/06/29 08:49:25;;;;;;;12.52;11.43;;;;;;;;;;10614327;27;20054;-81
2021/06/29 08:54:26;;;;;;;13.30;11.90;;;;;;;;;;10618242;27;20080;-84
2021/06/29 08:59:27;;;;;;;14.18;12.88;;;;;;;;;;10618257;27;20023;-81
2021/06/29 09:04:49;;;;;;;13.02;11.82;;;;;;;;;;10613742;27;20366;-83
2021/06/29 09:09:54;;;;;;;12.93;11.63;;;;;;;;;;10620435;27;20023;-83
2021/06/29 09:14:55;;;;;;;12.65;11.38;;;;;;;;;;10642432;27;20398;-83
2021/06/29 09:19:56;;;;;;;13.02;11.70;;;;;;;;;;10624728;27;20072;-85
2021/06/29 09:24:58;;;;;;;15.38;13.50;;;;;;;;;;10643190;27;20027;-83
2021/06/29 09:29:59;;;;;;;22.45;20.30;;;;;;;;;;10620458;27;20034;-84
2021/06/29 09:35:08;;;;;;;18.17;16.48;;;;;;;;;;10618336;27;20113;-84
2021/06/29 09:40:09;;;;;;;19.05;17.40;;;;;;;;;;10625695;27;20041;-84
2021/06/29 09:45:29;;;;;;;17.08;15.55;;;;;;;;;;10639067;27;20019;-81
2021/06/29 09:50:47;;;;;;;17.08;15.48;;;;;;;;;;10616600;28;20019;-84
2021/06/29 09:55:49;;;;;;;15.90;14.50;;;;;;;;;;10636759;28;20011;-84
2021/06/29 10:00:51;;;;;;;19.23;17.48;;;;;;;;;;10618519;28;20030;-84
2021/06/29 10:05:53;;;;;;;20.20;18.20;;;;;;;;;;10614821;28;20031;-84
2021/06/29 10:11:08;;;;;;;16.88;15.38;;;;;;;;;;10631179;28;20070;-86
2021/06/29 10:16:10;;;;;;;16.88;15.30;;;;;;;;;;10646580;28;20026;-84
2021/06/29 10:21:17;;;;;;;20.83;18.92;;;;;;;;;;10573480;22;20041;-82
2021/06/29 10:26:18;;;;;;;15.45;14.05;;;;;;;;;;10506799;28;20047;-83
2021/06/29 10:31:30;;;;;;;16.80;15.00;;;;;;;;;;10534071;28;20096;-83
2021/06/29 10:36:33;;;;;;;18.48;16.83;;;;;;;;;;10544957;28;20035;-77
2021/06/29 10:41:35;;;;;;;18.42;16.88;;;;;;;;;;10545915;28;20027;-78
2021/06/29 10:46:40;;;;;;;15.88;14.32;;;;;;;;;;10550131;28;20024;-78
2021/06/29 10:51:41;;;;;;;19.98;18.08;;;;;;;;;;10546985;28;20130;-80
2021/06/29 10:56:53;;;;;;;21.08;19.15;;;;;;;;;;10547247;28;20186;-78
2021/06/29 11:01:57;;;;;;;19.30;17.40;;;;;;;;;;10549506;28;20020;-78
2021/06/29 11:12:58;;;;;;;17.40;15.87;;;;;;;;;;10477558;28;20053;-80
2021/06/29 11:18:00;;;;;;;18.65;17.10;;;;;;;;;;10524917;28;20267;-83
2021/06/29 11:23:05;;;;;;;19.05;17.33;;;;;;;;;;10554798;28;20081;-83
2021/06/29 11:28:06;;;;;;;14.27;12.82;;;;;;;;;;10556981;28;20051;-81
2021/06/29 11:33:26;;;;;;;17.17;15.48;;;;;;;;;;10556869;28;20036;-83
2021/06/29 11:38:38;;;;;;;15.20;13.80;;;;;;;;;;10555663;28;20028;-85
2021/06/29 11:43:39;;;;;;;18.45;16.65;;;;;;;;;;10553876;28;20386;-85
2021/06/29 11:48:44;;;;;;;17.75;16.20;;;;;;;;;;10554021;28;20055;-83
2021/06/29 11:53:45;;;;;;;18.38;16.67;;;;;;;;;;10552272;28;20393;-83
2021/06/29 11:58:46;;;;;;;18.08;16.38;;;;;;;;;;10550379;28;20031;-85
2021/06/29 12:03:47;;;;;;;19.77;18.00;;;;;;;;;;10551010;28;20032;-83
2021/06/29 12:08:57;;;;;;;17.25;15.63;;;;;;;;;;10554061;28;20485;-83
2021/06/29 12:13:58;;;;;;;19.40;17.40;;;;;;;;;;10553661;28;20057;-83
2021/06/29 12:18:59;;;;;;;13.45;12.15;;;;;;;;;;10550309;28;20200;-83
2021/06/29 12:24:00;;;;;;;13.70;12.35;;;;;;;;;;10549569;28;20024;-84
2021/06/29 12:29:01;;;;;;;16.98;15.27;;;;;;;;;;10548221;28;20088;-84
2021/06/29 12:34:03;;;;;;;18.77;16.92;;;;;;;;;;10555915;28;20024;-83
2021/06/29 12:39:06;;;;;;;17.55;15.93;;;;;;;;;;10547371;28;20055;-82
2021/06/29 12:44:09;;;;;;;16.30;14.80;;;;;;;;;;10552119;28;20028;-83
2021/06/29 12:49:15;;;;;;;13.05;11.88;;;;;;;;;;10550099;28;20064;-83
2021/06/29 12:54:17;;;;;;;15.30;13.93;;;;;;;;;;10547038;28;20028;-82
2021/06/29 12:59:19;;;;;;;14.70;13.18;;;;;;;;;;10547350;28;20046;-82
2021/06/29 13:04:22;;;;;;;15.38;13.80;;;;;;;;;;10547987;28;20186;-81
2021/06/29 13:09:30;;;;;;;13.45;12.20;;;;;;;;;;10553715;28;20111;-82
2021/06/29 13:14:31;;;;;;;13.52;11.98;;;;;;;;;;10548017;28;20030;-82
2021/06/29 13:19:33;;;;;;;14.60;13.18;;;;;;;;;;10549031;28;20038;-82
2021/06/29 13:24:39;;;;;;;11.55;10.25;;;;;;;;;;10548755;28;20024;-81
2021/06/29 13:29:41;;;;;;;17.20;15.40;;;;;;;;;;10549980;28;20385;-81
2021/06/29 13:34:43;;;;;;;13.15;11.85;;;;;;;;;;10551228;28;20022;-81
2021/06/29 13:39:43;;;;;;;15.60;13.95;;;;;;;;;;10549779;28;20080;-78
2021/06/29 13:44:54;;;;;;;13.48;12.18;;;;;;;;;;10549198;28;20445;-79
2021/06/29 13:49:58;;;;;;;16.98;15.27;;;;;;;;;;10548922;28;20020;-80
2021/06/29 13:55:10;;;;;;;14.45;12.90;;;;;;;;;;10547125;28;20020;-79
2021/06/29 14:00:20;;;;;;;16.92;15.32;;;;;;;;;;10545833;28;20023;-79
2021/06/29 14:05:30;;;;;;;16.88;15.27;;;;;;;;;;10545343;28;20024;-81
2021/06/29 14:10:31;;;;;;;15.45;13.93;;;;;;;;;;10544409;28;20028;-80
2021/06/29 14:15:33;;;;;;;23.38;21.08;;;;;;;;;;10550053;28;20119;-80
2021/06/29 14:20:34;;;;;;;19.48;17.67;;;;;;;;;;10550323;28;20043;-80
2021/06/29 14:25:35;;;;;;;21.35;19.25;;;;;;;;;;10551282;28;20474;-80
2021/06/29 14:30:36;;;;;;;15.43;13.93;;;;;;;;;;10551137;28;20085;-80
2021/06/29 14:35:37;;;;;;;16.80;15.10;;;;;;;;;;10555257;28;20048;-82
2021/06/29 14:40:38;;;;;;;15.82;14.02;;;;;;;;;;10554860;28;20035;-82
2021/06/29 14:45:40;;;;;;;16.40;14.80;;;;;;;;;;10553113;28;20437;-82
2021/06/29 14:50:45;;;;;;;14.70;13.32;;;;;;;;;;10553815;28;20035;-82
2021/06/29 14:55:46;;;;;;;11.02;10.05;;;;;;;;;;10551346;28;20016;-80
2021/06/29 15:00:47;;;;;;;22.55;20.45;;;;;;;;;;10550704;28;20028;-79
2021/06/29 15:05:48;;;;;;;13.68;12.48;;;;;;;;;;10552382;28;20038;-79
2021/06/29 15:10:49;;;;;;;16.13;14.57;;;;;;;;;;10553226;28;20051;-80
2021/06/29 15:15:50;;;;;;;20.60;18.63;;;;;;;;;;10555813;28;20389;-80
2021/06/29 15:20:51;;;;;;;16.08;14.52;;;;;;;;;;10559113;28;20032;-84
2021/06/29 15:25:52;;;;;;;16.25;14.70;;;;;;;;;;10559618;28;20091;-83
2021/06/29 15:30:53;;;;;;;16.35;14.25;;;;;;;;;;10563125;28;20084;-83
2021/06/29 15:35:54;;;;;;;14.82;13.20;;;;;;;;;;10560172;28;20024;-82
2021/06/29 15:40:54;;;;;;;18.45;16.73;;;;;;;;;;10549983;28;20020;-80
2021/06/29 15:45:55;;;;;;;15.98;14.48;;;;;;;;;;10555479;28;20067;-83
2021/06/29 15:50:56;;;;;;;13.20;11.95;;;;;;;;;;10553065;28;20039;-84
2021/06/29 15:55:58;;;;;;;17.30;15.50;;;;;;;;;;10550672;28;20220;-84
2021/06/29 16:00:59;;;;;;;16.05;14.45;;;;;;;;;;10548224;28;20051;-80
2021/06/29 16:06:00;;;;;;;21.20;19.13;;;;;;;;;;10549321;28;20424;-83
2021/06/29 16:11:01;;;;;;;18.42;16.45;;;;;;;;;;10553749;28;20024;-82
2021/06/29 16:16:03;;;;;;;18.08;16.30;;;;;;;;;;10549168;28;20557;-82
2021/06/29 16:21:04;;;;;;;20.42;18.42;;;;;;;;;;10553844;28;20495;-84
2021/06/29 16:26:21;;;;;;;19.02;17.20;;;;;;;;;;10554815;28;20074;-86
2021/06/29 16:31:22;;;;;;;19.13;17.33;;;;;;;;;;10561339;28;20024;-84
2021/06/29 16:36:23;;;;;;;17.83;16.02;;;;;;;;;;10553707;28;20020;-85
2021/06/29 16:41:26;;;;;;;17.65;15.98;;;;;;;;;;10553821;28;20055;-84
2021/06/29 16:46:30;;;;;;;14.65;13.35;;;;;;;;;;10535200;28;20028;-85
2021/06/29 16:51:31;;;;;;;17.58;15.98;;;;;;;;;;10551449;28;20055;-83
2021/06/29 16:56:32;;;;;;;17.55;15.93;;;;;;;;;;10551402;28;20024;-83
2021/06/29 17:01:33;;;;;;;16.35;14.85;;;;;;;;;;10552870;28;20039;-82
2021/06/29 17:06:37;;;;;;;15.23;13.73;;;;;;;;;;10556070;28;20039;-84
2021/06/29 17:11:39;;;;;;;15.10;13.75;;;;;;;;;;10563626;28;20062;-83
2021/06/29 17:16:40;;;;;;;14.85;13.55;;;;;;;;;;10558382;28;20016;-82
2021/06/29 17:21:41;;;;;;;13.82;12.63;;;;;;;;;;10553547;28;20032;-84
2021/06/29 17:26:42;;;;;;;12.63;11.40;;;;;;;;;;10552733;28;20024;-83
2021/06/29 17:31:43;;;;;;;10.90;9.95;;;;;;;;;;10549784;28;20089;-82
2021/06/29 17:36:44;;;;;;;14.13;12.82;;;;;;;;;;10533500;28;20020;-82
2021/06/29 17:41:45;;;;;;;12.07;10.30;;;;;;;;;;10551125;28;20129;-82
2021/06/29 17:46:46;;;;;;;11.15;10.18;;;;;;;;;;10560047;28;20020;-84
2021/06/29 17:51:49;;;;;;;9.55;8.68;;;;;;;;;;10556783;28;20063;-84
2021/06/29 17:56:50;;;;;;;10.20;9.05;;;;;;;;;;10533685;28;20113;-82
2021/06/29 18:01:51;;;;;;;9.90;9.05;;;;;;;;;;10534222;28;20137;-84
2021/06/29 18:06:55;;;;;;;10.35;9.40;;;;;;;;;;10540772;28;20122;-82
2021/06/29 18:11:56;;;;;;;11.40;10.40;;;;;;;;;;10531633;28;20028;-85
2021/06/29 18:16:57;;;;;;;9.52;8.63;;;;;;;;;;10552476;28;20114;-83
2021/06/29 18:21:58;;;;;;;10.25;9.25;;;;;;;;;;10543146;28;20046;-84
2021/06/29 18:26:59;;;;;;;9.45;8.65;;;;;;;;;;10544571;28;20042;-84
2021/06/29 18:32:00;;;;;;;9.45;8.65;;;;;;;;;;10532143;28;20061;-83
2021/06/29 18:37:01;;;;;;;9.55;8.65;;;;;;;;;;10532608;28;20095;-86
2021/06/29 18:42:06;;;;;;;8.32;7.53;;;;;;;;;;10544438;28;20115;-84
2021/06/29 18:47:07;;;;;;;9.77;8.88;;;;;;;;;;10537232;28;20032;-82
2021/06/29 18:52:09;;;;;;;13.32;12.13;;;;;;;;;;10534632;28;20048;-82
2021/06/29 18:57:10;;;;;;;7.13;6.53;;;;;;;;;;10548553;28;20023;-82
2021/06/29 19:02:11;;;;;;;6.93;6.25;;;;;;;;;;10536778;28;20469;-84
2021/06/29 19:07:12;;;;;;;9.02;7.40;;;;;;;;;;10541508;28;20028;-85
2021/06/29 19:12:19;;;;;;;6.90;6.30;;;;;;;;;;10566935;28;20466;-84
2021/06/29 19:17:21;;;;;;;7.13;6.53;;;;;;;;;;10562198;28;20028;-85
2021/06/29 19:22:24;;;;;;;6.55;5.95;;;;;;;;;;10554873;28;20102;-82
2021/06/29 19:27:25;;;;;;;5.93;5.43;;;;;;;;;;10537817;28;20020;-86
2021/06/29 19:32:26;;;;;;;7.45;6.65;;;;;;;;;;10539157;28;20024;-82
2021/06/29 19:37:27;;;;;;;4.00;3.45;;;;;;;;;;10537566;28;20050;-85
2021/06/29 19:42:28;;;;;;;2.60;1.90;;;;;;;;;;10542204;28;20039;-83
2021/06/29 19:47:29;;;;;;;2.80;2.00;;;;;;;;;;10534777;28;20089;-82
2021/06/29 19:52:30;;;;;;;2.65;1.98;;;;;;;;;;10551595;28;20056;-81
2021/06/29 19:57:31;;;;;;;2.92;2.10;;;;;;;;;;10534612;28;20020;-82
2021/06/29 20:02:33;;;;;;;2.55;2.35;;;;;;;;;;10533254;28;20032;-82
2021/06/29 20:07:34;;;;;;;2.58;2.17;;;;;;;;;;10551065;28;20024;-81
2021/06/29 20:12:37;;;;;;;2.72;2.20;;;;;;;;;;10532692;28;20397;-82
2021/06/29 20:17:38;;;;;;;5.10;2.75;;;;;;;;;;10533619;28;20028;-82
